West Hemlock, Pennsylvania
Current Conditions -  °F | °C
As of 12:53 PM on Friday 19 Dec 2014 (Local Time) from KSEG Reporting Station
Broken Clouds Broken Clouds  
Wind Chill: 32°   Ceiling: 3800
Heat Index: 37°   Visibility: 10mi
Dew Point: 22°   Wind: 7mph
Humidity: 54%   Direction: NA
Pressure: 30.11"   Gusts: NA
Location:  41.0117°N, 76.6578°W
Report Text: KSEG 191753Z AUTO VRB06KT 10SM BKN038 03/M06 A3011 RMK AO2 SLP200 T00281056 10039 20017 55006
Loading
Personal Weather Stations






























Interactive Weather Map New forecast layout! Learn more

10-Day Weather Forecast

Advertisements
Track Severe Weather on mobile